Time;durP1;ratioP1;P1;durP2;ratioP2;P2;SDS_P1;SDS_P2;PMS_P1;PMS_P2;Temp;Humidity;BMP_temperature;BMP_pressure;BME280_temperature;BME280_humidity;BME280_pressure;Samples;Min_cycle;Max_cycle;Signal;HPM_P1;HPM_P2
2021/12/21 00:00:51;;;;;;;4.63;3.53;;;;;;;;;;5021256;28;20025;-75
2021/12/21 00:03:17;;;;;;;6.70;3.80;;;;;;;;;;5005696;28;20026;-75
2021/12/21 00:05:44;;;;;;;5.78;3.60;;;;;;;;;;5011203;28;20025;-71
2021/12/21 00:08:12;;;;;;;5.53;3.83;;;;;;;;;;5011870;28;20029;-77
2021/12/21 00:10:39;;;;;;;4.60;4.18;;;;;;;;;;5021237;28;20407;-72
2021/12/21 00:18:40;;;;;;;5.20;3.95;;;;;;;;;;5020051;28;20026;-75
2021/12/21 00:23:42;;;;;;;4.93;3.65;;;;;;;;;;5001077;28;20023;-77
2021/12/21 00:26:13;;;;;;;7.63;4.07;;;;;;;;;;5017574;28;20396;-73
2021/12/21 00:28:56;;;;;;;6.75;3.75;;;;;;;;;;5011463;28;20038;-76
2021/12/21 00:31:23;;;;;;;6.28;3.80;;;;;;;;;;5006707;28;20068;-77
2021/12/21 00:33:49;;;;;;;4.75;3.20;;;;;;;;;;5009282;28;20027;-76
2021/12/21 00:36:17;;;;;;;5.18;3.58;;;;;;;;;;5000458;28;20031;-76
2021/12/21 00:38:46;;;;;;;4.35;3.20;;;;;;;;;;5017797;28;20026;-76
2021/12/21 00:41:13;;;;;;;4.95;3.35;;;;;;;;;;5011858;28;20026;-77
2021/12/21 00:43:39;;;;;;;3.97;3.25;;;;;;;;;;4999292;28;20026;-76
2021/12/21 00:46:05;;;;;;;4.00;3.00;;;;;;;;;;5009915;28;20034;-73
2021/12/21 00:48:33;;;;;;;3.88;3.00;;;;;;;;;;5000409;28;20037;-76
2021/12/21 00:51:01;;;;;;;4.40;3.00;;;;;;;;;;5004192;28;20017;-74
2021/12/21 00:53:27;;;;;;;5.22;2.95;;;;;;;;;;5008708;28;20081;-74
2021/12/21 00:55:54;;;;;;;4.35;3.40;;;;;;;;;;5010560;28;20103;-75
2021/12/21 00:58:20;;;;;;;4.13;2.90;;;;;;;;;;5001519;28;20047;-77
2021/12/21 01:00:46;;;;;;;5.07;3.55;;;;;;;;;;5011837;28;20129;-74
2021/12/21 01:03:15;;;;;;;5.53;3.60;;;;;;;;;;5011034;28;20027;-74
2021/12/21 01:08:13;;;;;;;4.43;3.03;;;;;;;;;;5017236;28;20384;-76
2021/12/21 01:11:03;;;;;;;4.10;3.05;;;;;;;;;;5017686;28;20021;-75
2021/12/21 01:13:43;;;;;;;6.75;3.67;;;;;;;;;;5015430;28;20025;-75
2021/12/21 01:21:36;;;;;;;4.05;3.38;;;;;;;;;;5002479;28;20053;-77
2021/12/21 01:27:05;;;;;;;4.68;4.05;;;;;;;;;;5006038;28;20026;-74
2021/12/21 01:32:38;;;;;;;4.78;3.78;;;;;;;;;;5002430;28;20050;-75
2021/12/21 01:35:17;;;;;;;4.97;4.25;;;;;;;;;;5002306;28;20027;-74
2021/12/21 01:51:01;;;;;;;4.82;3.78;;;;;;;;;;5022022;28;20041;-75
2021/12/21 01:53:27;;;;;;;5.35;3.80;;;;;;;;;;5012538;28;20078;-77
2021/12/21 01:55:54;;;;;;;5.47;3.95;;;;;;;;;;5003710;28;20069;-75
2021/12/21 01:58:20;;;;;;;4.60;3.70;;;;;;;;;;5017369;28;20113;-74
2021/12/21 02:00:47;;;;;;;9.00;6.13;;;;;;;;;;4989640;28;20026;-73
2021/12/21 02:03:14;;;;;;;13.45;7.38;;;;;;;;;;5021324;28;20052;-72
2021/12/21 02:05:40;;;;;;;13.02;7.82;;;;;;;;;;5020251;28;20030;-73
2021/12/21 02:08:06;;;;;;;14.80;8.80;;;;;;;;;;5004872;28;20113;-72
2021/12/21 02:10:32;;;;;;;9.23;6.25;;;;;;;;;;5002180;28;20031;-75
2021/12/21 02:12:58;;;;;;;5.05;3.67;;;;;;;;;;5013871;28;20026;-77
2021/12/21 02:15:25;;;;;;;4.90;3.92;;;;;;;;;;5002666;28;20026;-75
2021/12/21 02:23:02;;;;;;;5.05;3.72;;;;;;;;;;4985197;28;20030;-75
2021/12/21 02:27:59;;;;;;;5.72;4.03;;;;;;;;;;5018919;28;20088;-75
2021/12/21 02:30:27;;;;;;;10.18;6.05;;;;;;;;;;5018250;28;20031;-74
2021/12/21 02:32:53;;;;;;;18.23;9.40;;;;;;;;;;5010427;28;20018;-75
2021/12/21 02:35:20;;;;;;;9.98;5.63;;;;;;;;;;5007545;28;20080;-75
2021/12/21 02:37:46;;;;;;;6.57;4.68;;;;;;;;;;5018556;28;20463;-75
2021/12/21 02:40:12;;;;;;;7.15;5.05;;;;;;;;;;5016967;28;20057;-76
2021/12/21 02:42:38;;;;;;;6.70;4.78;;;;;;;;;;5006375;28;20038;-76
2021/12/21 02:45:05;;;;;;;6.00;4.70;;;;;;;;;;4999256;28;20026;-76
2021/12/21 02:47:31;;;;;;;5.18;4.55;;;;;;;;;;5001134;28;20034;-72
2021/12/21 02:49:59;;;;;;;7.63;5.07;;;;;;;;;;5012782;28;20076;-75
2021/12/21 02:52:25;;;;;;;11.95;7.53;;;;;;;;;;5017656;28;20033;-75
2021/12/21 02:54:51;;;;;;;14.52;9.05;;;;;;;;;;4999912;28;20065;-77
2021/12/21 02:57:17;;;;;;;12.38;7.88;;;;;;;;;;5007079;28;20523;-77
2021/12/21 02:59:43;;;;;;;6.53;5.10;;;;;;;;;;5007963;28;20065;-71
2021/12/21 03:02:09;;;;;;;6.05;4.63;;;;;;;;;;5012263;28;20121;-74
2021/12/21 03:04:35;;;;;;;7.47;4.35;;;;;;;;;;5000654;28;20038;-75
2021/12/21 03:09:41;;;;;;;8.05;5.50;;;;;;;;;;5002305;28;20035;-76
2021/12/21 03:12:15;;;;;;;6.63;4.70;;;;;;;;;;5004230;28;20029;-75
2021/12/21 03:14:41;;;;;;;12.85;7.57;;;;;;;;;;5005469;28;20052;-75
2021/12/21 03:17:08;;;;;;;10.75;7.15;;;;;;;;;;5012701;28;20034;-74
2021/12/21 03:19:35;;;;;;;7.85;5.95;;;;;;;;;;5017724;28;20034;-74
2021/12/21 03:22:01;;;;;;;17.33;9.60;;;;;;;;;;5005756;28;20023;-75
2021/12/21 03:24:27;;;;;;;12.98;7.40;;;;;;;;;;4999768;28;20041;-72
2021/12/21 03:26:53;;;;;;;12.18;6.07;;;;;;;;;;5003766;28;20600;-74
2021/12/21 03:29:19;;;;;;;8.10;5.57;;;;;;;;;;5018463;28;20030;-74
2021/12/21 03:31:45;;;;;;;6.80;4.95;;;;;;;;;;5017838;28;20026;-75
2021/12/21 03:34:11;;;;;;;6.65;4.65;;;;;;;;;;5001698;28;20027;-76
2021/12/21 03:36:38;;;;;;;5.20;4.53;;;;;;;;;;5017398;28;20062;-75
2021/12/21 03:39:07;;;;;;;5.53;4.70;;;;;;;;;;5013068;28;20478;-74
2021/12/21 03:41:35;;;;;;;8.35;5.07;;;;;;;;;;5008770;28;20057;-73
2021/12/21 03:44:02;;;;;;;7.25;4.60;;;;;;;;;;5007223;28;20034;-77
2021/12/21 03:46:31;;;;;;;7.30;5.65;;;;;;;;;;5019740;28;20025;-77
2021/12/21 03:48:57;;;;;;;7.45;4.88;;;;;;;;;;5010555;28;20030;-76
2021/12/21 03:51:23;;;;;;;7.30;4.95;;;;;;;;;;5010126;28;20026;-74
2021/12/21 03:53:49;;;;;;;7.53;5.13;;;;;;;;;;4998816;28;20034;-75
2021/12/21 03:58:42;;;;;;;6.80;4.95;;;;;;;;;;4999618;28;20512;-75
2021/12/21 04:01:13;;;;;;;6.50;4.85;;;;;;;;;;4998743;28;20129;-75
2021/12/21 04:03:40;;;;;;;7.15;5.18;;;;;;;;;;5005097;28;20022;-76
2021/12/21 04:06:06;;;;;;;29.27;12.65;;;;;;;;;;5001448;28;20444;-77
2021/12/21 04:08:34;;;;;;;32.97;13.05;;;;;;;;;;5014233;28;20100;-74
2021/12/21 04:11:00;;;;;;;13.00;6.75;;;;;;;;;;5004860;28;20030;-77
2021/12/21 04:13:27;;;;;;;7.25;4.88;;;;;;;;;;5017859;28;20046;-75
2021/12/21 04:15:54;;;;;;;5.38;4.35;;;;;;;;;;5005474;28;20031;-72
2021/12/21 04:18:22;;;;;;;5.13;4.05;;;;;;;;;;5003714;28;20212;-76
2021/12/21 04:20:49;;;;;;;5.68;4.20;;;;;;;;;;5001234;28;20022;-74
2021/12/21 04:23:15;;;;;;;6.20;4.68;;;;;;;;;;5006218;28;20500;-76
2021/12/21 04:25:42;;;;;;;6.75;5.00;;;;;;;;;;5013685;28;20036;-72
2021/12/21 04:28:08;;;;;;;5.85;4.85;;;;;;;;;;5012168;28;20431;-77
2021/12/21 04:30:34;;;;;;;7.05;5.13;;;;;;;;;;5015993;28;20080;-74
2021/12/21 04:33:00;;;;;;;7.47;5.53;;;;;;;;;;5004562;28;20037;-75
2021/12/21 04:35:26;;;;;;;7.28;5.22;;;;;;;;;;5008825;28;20160;-77
2021/12/21 04:38:00;;;;;;;8.10;6.15;;;;;;;;;;5006019;28;20034;-76
2021/12/21 04:40:39;;;;;;;8.43;5.78;;;;;;;;;;5000033;28;20019;-76
2021/12/21 04:43:05;;;;;;;10.90;6.60;;;;;;;;;;5011951;28;20369;-75
2021/12/21 04:45:32;;;;;;;9.32;6.78;;;;;;;;;;5015713;28;20543;-77
2021/12/21 04:47:58;;;;;;;8.43;6.25;;;;;;;;;;5017347;28;20080;-74
2021/12/21 04:50:24;;;;;;;8.25;6.70;;;;;;;;;;5022504;28;20034;-72
2021/12/21 04:52:50;;;;;;;9.10;7.20;;;;;;;;;;5019742;28;20070;-76
2021/12/21 04:55:16;;;;;;;9.40;6.85;;;;;;;;;;5010360;28;20025;-77
2021/12/21 04:57:43;;;;;;;12.52;6.93;;;;;;;;;;5009516;28;20074;-76
2021/12/21 05:00:10;;;;;;;9.77;6.95;;;;;;;;;;5003305;28;20378;-75
2021/12/21 05:02:36;;;;;;;11.30;6.78;;;;;;;;;;5021177;28;20030;-76
2021/12/21 05:05:03;;;;;;;10.05;7.30;;;;;;;;;;5018820;28;20030;-75
2021/12/21 05:07:32;;;;;;;10.30;7.05;;;;;;;;;;5015473;28;20034;-75
2021/12/21 05:10:00;;;;;;;11.43;7.47;;;;;;;;;;5011378;28;20525;-74
2021/12/21 05:12:27;;;;;;;8.40;7.15;;;;;;;;;;5011632;28;20023;-77
2021/12/21 05:14:53;;;;;;;10.18;8.32;;;;;;;;;;5016188;28;20123;-76
2021/12/21 05:17:19;;;;;;;10.80;8.25;;;;;;;;;;5020560;28;20041;-76
2021/12/21 05:19:45;;;;;;;9.48;7.43;;;;;;;;;;5022035;28;20030;-76
2021/12/21 05:22:12;;;;;;;8.98;7.70;;;;;;;;;;5008947;28;20038;-75
2021/12/21 05:24:38;;;;;;;9.57;7.22;;;;;;;;;;5008699;28;20038;-77
2021/12/21 05:27:05;;;;;;;9.68;7.97;;;;;;;;;;4998729;28;20046;-76
2021/12/21 05:29:32;;;;;;;9.38;7.80;;;;;;;;;;5002841;28;20057;-73
2021/12/21 05:32:01;;;;;;;9.20;7.60;;;;;;;;;;5017560;28;20489;-73
2021/12/21 05:34:28;;;;;;;13.48;8.35;;;;;;;;;;5019424;28;20026;-76
2021/12/21 05:36:54;;;;;;;9.52;7.15;;;;;;;;;;5017262;28;20018;-73
2021/12/21 05:39:24;;;;;;;12.98;8.05;;;;;;;;;;4999411;28;20026;-71
2021/12/21 05:41:55;;;;;;;9.32;7.93;;;;;;;;;;5008110;28;20042;-76
2021/12/21 05:44:25;;;;;;;8.95;7.13;;;;;;;;;;5017981;28;20063;-72
2021/12/21 05:46:52;;;;;;;9.45;6.95;;;;;;;;;;4986911;28;20023;-75
2021/12/21 05:49:18;;;;;;;9.23;7.28;;;;;;;;;;5010329;28;20040;-76
2021/12/21 05:51:45;;;;;;;9.82;6.97;;;;;;;;;;5003075;28;20098;-76
2021/12/21 05:54:12;;;;;;;10.00;7.43;;;;;;;;;;5014426;28;20127;-74
2021/12/21 05:56:38;;;;;;;8.20;7.13;;;;;;;;;;5020214;28;20046;-77
2021/12/21 05:59:04;;;;;;;10.90;7.53;;;;;;;;;;5015431;28;20030;-77
2021/12/21 06:01:31;;;;;;;8.93;6.95;;;;;;;;;;5011042;28;20120;-74
2021/12/21 06:03:57;;;;;;;7.82;6.75;;;;;;;;;;5020069;28;20088;-75
2021/12/21 06:06:24;;;;;;;8.50;7.07;;;;;;;;;;5019081;28;20388;-76
2021/12/21 06:08:52;;;;;;;8.05;6.70;;;;;;;;;;5012797;28;20031;-72
2021/12/21 06:11:20;;;;;;;7.70;6.53;;;;;;;;;;5001285;28;20520;-77
2021/12/21 06:22:46;;;;;;;9.25;6.60;;;;;;;;;;5015528;28;20065;-75
2021/12/21 06:25:37;;;;;;;9.13;6.70;;;;;;;;;;4993595;28;20088;-78
2021/12/21 06:27:35;;;;;;;7.75;6.55;;;;;;;;;;5004258;28;20037;-74
2021/12/21 06:30:01;;;;;;;7.55;6.10;;;;;;;;;;5007557;28;20027;-76
2021/12/21 06:32:28;;;;;;;8.27;6.43;;;;;;;;;;5017997;28;20025;-76
2021/12/21 06:34:54;;;;;;;7.30;6.32;;;;;;;;;;5002705;28;20037;-77
2021/12/21 06:37:20;;;;;;;10.85;6.47;;;;;;;;;;4999577;28;20026;-76
2021/12/21 06:39:48;;;;;;;9.25;6.80;;;;;;;;;;5001131;28;20030;-74
2021/12/21 06:42:14;;;;;;;8.70;6.63;;;;;;;;;;5014940;28;20036;-77
2021/12/21 06:44:43;;;;;;;10.15;7.22;;;;;;;;;;5001020;28;20023;-74
2021/12/21 06:52:40;;;;;;;8.98;7.82;;;;;;;;;;5010714;28;20033;-72
2021/12/21 06:55:07;;;;;;;9.73;7.07;;;;;;;;;;5012219;28;20029;-77
2021/12/21 06:57:34;;;;;;;8.50;6.97;;;;;;;;;;5009739;28;20046;-76
2021/12/21 07:00:01;;;;;;;10.20;7.78;;;;;;;;;;5013073;28;20408;-72
2021/12/21 07:02:28;;;;;;;8.50;7.05;;;;;;;;;;5008793;28;20027;-76
2021/12/21 07:04:55;;;;;;;8.50;7.03;;;;;;;;;;5001318;28;20512;-75
2021/12/21 07:07:21;;;;;;;8.35;6.32;;;;;;;;;;5017054;28;20049;-72
2021/12/21 07:09:58;;;;;;;8.35;6.95;;;;;;;;;;5006011;28;20490;-75
2021/12/21 07:17:48;;;;;;;9.27;7.35;;;;;;;;;;5000262;28;20029;-76
2021/12/21 07:20:32;;;;;;;9.07;7.40;;;;;;;;;;5001759;28;20026;-77
2021/12/21 07:22:59;;;;;;;9.25;7.78;;;;;;;;;;5001442;28;20113;-74
2021/12/21 07:25:25;;;;;;;9.98;7.75;;;;;;;;;;5002670;28;20030;-76
2021/12/21 07:27:52;;;;;;;8.85;7.47;;;;;;;;;;5012505;28;20396;-76
2021/12/21 07:30:18;;;;;;;10.40;7.78;;;;;;;;;;5017329;28;20029;-76
2021/12/21 07:32:44;;;;;;;11.50;7.85;;;;;;;;;;5018971;28;20030;-74
2021/12/21 07:35:10;;;;;;;11.23;7.53;;;;;;;;;;5013821;28;20450;-77
2021/12/21 07:37:36;;;;;;;9.65;7.13;;;;;;;;;;5011766;28;20033;-77
2021/12/21 07:40:07;;;;;;;12.48;9.30;;;;;;;;;;5020435;28;20037;-77
2021/12/21 07:42:33;;;;;;;10.88;8.00;;;;;;;;;;5003383;28;20033;-75
2021/12/21 07:44:59;;;;;;;10.80;8.20;;;;;;;;;;5019614;28;20026;-75
2021/12/21 07:47:26;;;;;;;11.27;8.05;;;;;;;;;;5017998;28;20026;-72
2021/12/21 07:49:52;;;;;;;11.48;8.85;;;;;;;;;;5006519;28;20026;-76
2021/12/21 07:52:18;;;;;;;11.73;8.68;;;;;;;;;;5005118;28;20076;-77
2021/12/21 07:54:45;;;;;;;10.57;7.47;;;;;;;;;;5020003;28;20072;-76
2021/12/21 07:57:11;;;;;;;10.20;7.60;;;;;;;;;;5003600;28;20043;-76
2021/12/21 07:59:38;;;;;;;9.77;7.78;;;;;;;;;;4997775;28;20029;-76
2021/12/21 08:02:05;;;;;;;12.98;8.48;;;;;;;;;;4984665;28;20027;-72
2021/12/21 08:04:32;;;;;;;11.52;8.63;;;;;;;;;;4984140;28;20031;-75
2021/12/21 08:07:04;;;;;;;10.70;8.30;;;;;;;;;;4985945;28;20026;-77
2021/12/21 08:09:37;;;;;;;9.60;8.50;;;;;;;;;;4994326;28;20393;-77
2021/12/21 08:12:17;;;;;;;9.45;6.78;;;;;;;;;;4987646;28;20085;-73
2021/12/21 08:14:50;;;;;;;15.77;9.52;;;;;;;;;;4992217;28;20023;-78
2021/12/21 08:17:17;;;;;;;12.95;9.25;;;;;;;;;;5004919;28;20026;-76
2021/12/21 08:19:44;;;;;;;10.60;7.70;;;;;;;;;;5021671;28;20026;-75
2021/12/21 08:22:12;;;;;;;11.88;8.30;;;;;;;;;;5012828;28;20037;-77
2021/12/21 08:24:38;;;;;;;10.98;8.00;;;;;;;;;;5012197;28;20028;-73
2021/12/21 08:27:04;;;;;;;12.85;7.43;;;;;;;;;;5024045;28;20523;-74
2021/12/21 08:29:33;;;;;;;10.65;7.72;;;;;;;;;;4991991;28;20034;-74
2021/12/21 08:31:59;;;;;;;8.75;7.43;;;;;;;;;;4997895;28;20026;-76
2021/12/21 08:34:25;;;;;;;10.20;6.78;;;;;;;;;;5016261;28;20035;-72
2021/12/21 08:36:52;;;;;;;9.40;6.95;;;;;;;;;;5024516;28;20025;-72
2021/12/21 08:39:18;;;;;;;11.77;7.47;;;;;;;;;;5016518;28;20057;-72
2021/12/21 08:41:45;;;;;;;11.20;8.20;;;;;;;;;;5004692;28;20018;-77
2021/12/21 08:44:12;;;;;;;12.15;9.10;;;;;;;;;;4991865;28;20086;-72
2021/12/21 08:46:41;;;;;;;10.68;8.55;;;;;;;;;;4997370;28;20022;-72
2021/12/21 08:49:07;;;;;;;9.48;7.55;;;;;;;;;;5020575;28;20117;-76
2021/12/21 08:51:34;;;;;;;9.18;7.65;;;;;;;;;;5024127;28;20041;-76
2021/12/21 08:54:00;;;;;;;9.68;7.88;;;;;;;;;;5004648;28;20069;-72
2021/12/21 08:56:26;;;;;;;9.25;7.88;;;;;;;;;;5008816;28;20118;-75
2021/12/21 08:58:52;;;;;;;10.30;7.50;;;;;;;;;;5009632;28;20023;-72
2021/12/21 09:01:18;;;;;;;9.38;7.13;;;;;;;;;;5002464;28;20052;-72
2021/12/21 09:03:45;;;;;;;10.52;7.68;;;;;;;;;;5016779;28;20113;-77
2021/12/21 09:06:11;;;;;;;18.35;7.72;;;;;;;;;;5009169;28;20099;-77
2021/12/21 09:08:38;;;;;;;10.10;7.35;;;;;;;;;;5013044;28;20033;-74
2021/12/21 09:11:05;;;;;;;10.00;7.30;;;;;;;;;;5020097;28;20028;-75
2021/12/21 09:13:32;;;;;;;9.52;7.95;;;;;;;;;;5020418;28;20106;-77
2021/12/21 09:15:58;;;;;;;10.20;7.07;;;;;;;;;;5005531;28;20026;-78
2021/12/21 09:18:25;;;;;;;9.63;7.22;;;;;;;;;;4999338;28;20385;-73
2021/12/21 09:20:51;;;;;;;8.73;7.82;;;;;;;;;;4999379;28;20030;-75
2021/12/21 09:23:17;;;;;;;10.40;7.97;;;;;;;;;;4999381;28;20118;-75
2021/12/21 09:25:47;;;;;;;9.73;7.15;;;;;;;;;;5013214;28;20382;-78
2021/12/21 09:28:14;;;;;;;9.70;7.38;;;;;;;;;;5000579;28;20022;-72
2021/12/21 09:30:40;;;;;;;10.40;8.15;;;;;;;;;;4991744;28;20474;-77
2021/12/21 09:33:06;;;;;;;9.48;7.10;;;;;;;;;;4982686;28;20023;-73
2021/12/21 09:35:32;;;;;;;9.23;7.75;;;;;;;;;;4991639;28;20049;-75
2021/12/21 09:37:58;;;;;;;10.63;8.15;;;;;;;;;;5003559;28;20023;-76
2021/12/21 09:40:30;;;;;;;10.95;6.75;;;;;;;;;;5017850;28;20026;-74
2021/12/21 09:42:57;;;;;;;8.95;6.00;;;;;;;;;;5005247;28;20401;-77
2021/12/21 09:45:23;;;;;;;8.07;6.68;;;;;;;;;;5021318;28;20030;-73
2021/12/21 09:47:49;;;;;;;7.88;7.07;;;;;;;;;;5010355;28;20033;-74
2021/12/21 09:50:16;;;;;;;7.93;5.93;;;;;;;;;;5003265;28;20026;-75
2021/12/21 09:52:43;;;;;;;8.52;6.10;;;;;;;;;;4983992;28;20033;-73
2021/12/21 09:55:11;;;;;;;13.63;6.90;;;;;;;;;;4982768;28;20033;-74
2021/12/21 09:57:37;;;;;;;10.45;6.63;;;;;;;;;;5016261;28;20054;-75
2021/12/21 10:00:04;;;;;;;12.57;6.55;;;;;;;;;;4997652;28;20031;-72
2021/12/21 10:02:34;;;;;;;9.32;6.05;;;;;;;;;;5002818;28;20532;-73
2021/12/21 10:05:02;;;;;;;9.95;6.10;;;;;;;;;;5008869;28;20029;-75
2021/12/21 10:07:28;;;;;;;10.35;7.20;;;;;;;;;;5007031;28;20040;-72
2021/12/21 10:10:12;;;;;;;8.73;6.43;;;;;;;;;;5008914;28;20037;-75
2021/12/21 10:12:42;;;;;;;8.95;6.50;;;;;;;;;;5010322;28;20097;-72
2021/12/21 10:15:16;;;;;;;9.10;7.28;;;;;;;;;;5007089;28;20027;-73
2021/12/21 10:18:00;;;;;;;12.77;7.38;;;;;;;;;;4992869;28;20109;-76
2021/12/21 10:20:46;;;;;;;11.40;7.07;;;;;;;;;;5000518;28;20023;-76
2021/12/21 10:23:16;;;;;;;11.95;7.03;;;;;;;;;;4986110;28;20031;-73
2021/12/21 10:25:44;;;;;;;12.95;7.00;;;;;;;;;;4992574;28;20030;-77
2021/12/21 10:28:11;;;;;;;15.10;7.32;;;;;;;;;;5015131;28;20041;-74
2021/12/21 10:30:47;;;;;;;9.80;6.70;;;;;;;;;;5024521;28;20022;-74
2021/12/21 10:33:13;;;;;;;7.13;5.85;;;;;;;;;;5025904;28;20033;-77
2021/12/21 10:35:39;;;;;;;8.35;6.10;;;;;;;;;;5021372;28;20113;-77
2021/12/21 10:38:07;;;;;;;11.73;5.85;;;;;;;;;;5022533;28;20385;-73
2021/12/21 10:40:33;;;;;;;7.38;5.38;;;;;;;;;;5008685;28;20110;-73
2021/12/21 10:43:05;;;;;;;9.70;5.95;;;;;;;;;;4987325;28;20030;-72
2021/12/21 10:45:38;;;;;;;12.05;6.90;;;;;;;;;;4987973;28;20039;-72
2021/12/21 10:48:06;;;;;;;14.57;6.03;;;;;;;;;;4988622;28;20025;-75
2021/12/21 10:50:33;;;;;;;13.80;6.43;;;;;;;;;;4988219;28;20390;-72
2021/12/21 10:53:00;;;;;;;12.35;5.75;;;;;;;;;;4988934;28;20014;-72
2021/12/21 10:55:31;;;;;;;16.73;8.80;;;;;;;;;;4988000;28;20054;-75
2021/12/21 10:58:18;;;;;;;18.48;6.32;;;;;;;;;;4988596;28;20039;-73
2021/12/21 11:00:52;;;;;;;10.57;6.00;;;;;;;;;;4988870;28;20031;-72
2021/12/21 11:03:29;;;;;;;18.00;6.85;;;;;;;;;;4987677;28;20425;-72
2021/12/21 11:05:55;;;;;;;8.70;5.15;;;;;;;;;;4988793;28;20042;-72
2021/12/21 11:08:25;;;;;;;15.25;6.97;;;;;;;;;;4987901;28;20031;-72
2021/12/21 11:10:54;;;;;;;15.30;6.93;;;;;;;;;;4987619;28;20098;-73
2021/12/21 11:13:20;;;;;;;14.85;7.10;;;;;;;;;;5006297;28;20033;-79
2021/12/21 11:15:56;;;;;;;11.70;7.47;;;;;;;;;;5027091;28;20049;-72
2021/12/21 11:18:23;;;;;;;12.13;6.25;;;;;;;;;;5027409;28;20022;-77
2021/12/21 11:20:54;;;;;;;10.95;6.47;;;;;;;;;;5027416;28;20038;-74
2021/12/21 11:23:22;;;;;;;13.40;6.68;;;;;;;;;;5025695;28;20025;-72
2021/12/21 11:25:58;;;;;;;12.68;4.97;;;;;;;;;;5026715;28;20072;-73
2021/12/21 11:28:29;;;;;;;17.15;6.47;;;;;;;;;;5025709;28;20038;-72
2021/12/21 11:30:59;;;;;;;9.05;6.90;;;;;;;;;;5026710;28;20022;-75
2021/12/21 11:33:34;;;;;;;16.15;5.53;;;;;;;;;;5025835;28;20105;-72
2021/12/21 11:38:45;;;;;;;15.10;5.20;;;;;;;;;;5027223;28;20033;-74
2021/12/21 11:41:11;;;;;;;8.55;5.10;;;;;;;;;;5026774;28;20026;-71
2021/12/21 11:43:40;;;;;;;14.70;5.25;;;;;;;;;;5026644;28;20025;-73
2021/12/21 11:46:10;;;;;;;10.48;6.47;;;;;;;;;;5027035;28;20086;-72
2021/12/21 11:48:56;;;;;;;15.60;6.50;;;;;;;;;;5026434;28;20445;-72
2021/12/21 11:51:27;;;;;;;8.48;4.60;;;;;;;;;;5009804;28;20030;-74
2021/12/21 11:53:54;;;;;;;12.00;6.10;;;;;;;;;;5005769;28;20026;-73
2021/12/21 11:56:21;;;;;;;15.93;5.60;;;;;;;;;;5005600;28;20358;-74
2021/12/21 11:58:49;;;;;;;11.75;4.75;;;;;;;;;;5007081;28;20046;-72
2021/12/21 12:01:17;;;;;;;15.13;5.65;;;;;;;;;;5007567;28;20057;-73
2021/12/21 12:03:54;;;;;;;14.65;5.88;;;;;;;;;;5006605;28;20026;-72
2021/12/21 12:06:20;;;;;;;6.20;5.45;;;;;;;;;;5006166;28;20050;-73
2021/12/21 12:08:52;;;;;;;13.73;5.55;;;;;;;;;;5005920;28;20019;-71
2021/12/21 12:11:38;;;;;;;12.73;6.20;;;;;;;;;;5006670;28;20021;-72
2021/12/21 12:14:09;;;;;;;14.05;7.47;;;;;;;;;;5000806;28;20078;-73
2021/12/21 12:16:40;;;;;;;13.00;6.70;;;;;;;;;;5006232;28;20030;-72
2021/12/21 12:19:13;;;;;;;11.38;5.78;;;;;;;;;;4999619;28;20050;-75
2021/12/21 12:21:39;;;;;;;5.75;4.18;;;;;;;;;;4986762;28;20027;-72
2021/12/21 12:24:05;;;;;;;13.73;5.38;;;;;;;;;;5022543;28;20033;-73
2021/12/21 12:26:33;;;;;;;8.98;5.88;;;;;;;;;;5025044;28;20034;-72
2021/12/21 12:29:21;;;;;;;10.13;5.85;;;;;;;;;;5017000;28;20084;-73
2021/12/21 12:31:48;;;;;;;10.73;5.57;;;;;;;;;;5010414;28;20057;-74
2021/12/21 12:34:29;;;;;;;12.02;4.82;;;;;;;;;;4994912;28;20066;-72
2021/12/21 12:36:56;;;;;;;9.32;5.72;;;;;;;;;;5006349;28;20030;-74
2021/12/21 12:39:28;;;;;;;15.07;5.90;;;;;;;;;;5006630;28;20445;-72
2021/12/21 12:41:54;;;;;;;18.77;6.72;;;;;;;;;;4994935;28;20027;-72
2021/12/21 12:44:21;;;;;;;10.40;6.40;;;;;;;;;;4990465;28;20022;-72
2021/12/21 12:46:55;;;;;;;12.18;5.32;;;;;;;;;;5005227;28;20023;-73
2021/12/21 12:49:26;;;;;;;14.93;6.10;;;;;;;;;;5006843;28;20054;-74
2021/12/21 12:52:01;;;;;;;12.27;5.78;;;;;;;;;;5006810;28;20086;-73
2021/12/21 12:54:27;;;;;;;;;;;;;;;;;;5007149;28;20089;-73
2021/12/21 12:56:53;;;;;;;;;;;;;;;;;;5006982;28;20284;-73
2021/12/21 12:59:19;;;;;;;;;;;;;;;;;;5006824;28;19910;-72
2021/12/21 13:01:47;;;;;;;10.55;6.00;;;;;;;;;;4998729;28;19906;-72
2021/12/21 13:04:14;;;;;;;13.20;5.80;;;;;;;;;;4990481;28;20023;-73
2021/12/21 13:06:41;;;;;;;13.18;6.15;;;;;;;;;;5007090;28;20105;-73
2021/12/21 13:09:10;;;;;;;10.82;6.28;;;;;;;;;;5020007;28;20062;-72
2021/12/21 13:11:40;;;;;;;14.02;7.30;;;;;;;;;;5010355;28;20497;-72
2021/12/21 13:14:06;;;;;;;13.63;6.72;;;;;;;;;;5018939;28;20050;-72
2021/12/21 13:16:33;;;;;;;14.05;7.05;;;;;;;;;;5029842;28;20029;-72
2021/12/21 13:19:01;;;;;;;16.10;8.02;;;;;;;;;;5029959;28;20029;-72
2021/12/21 13:21:32;;;;;;;9.07;7.30;;;;;;;;;;5028560;28;20032;-74
2021/12/21 13:24:10;;;;;;;14.60;7.57;;;;;;;;;;5028317;28;20148;-73
2021/12/21 13:26:36;;;;;;;11.98;6.43;;;;;;;;;;5029320;28;20029;-73
2021/12/21 13:29:03;;;;;;;9.85;6.55;;;;;;;;;;4990268;28;20030;-72
2021/12/21 13:31:29;;;;;;;11.18;7.15;;;;;;;;;;4990519;28;20027;-73
2021/12/21 13:33:57;;;;;;;12.80;6.20;;;;;;;;;;4990119;28;20043;-74
2021/12/21 13:36:37;;;;;;;13.25;5.28;;;;;;;;;;4990328;28;20086;-73
2021/12/21 13:39:18;;;;;;;12.75;6.50;;;;;;;;;;5000139;28;20069;-73
2021/12/21 13:41:48;;;;;;;11.13;5.70;;;;;;;;;;5029656;28;20022;-73
2021/12/21 13:44:20;;;;;;;11.32;5.30;;;;;;;;;;4992757;28;20027;-73
2021/12/21 13:46:46;;;;;;;9.43;5.60;;;;;;;;;;4989364;28;20528;-72
2021/12/21 13:49:13;;;;;;;13.65;6.85;;;;;;;;;;5007008;28;20026;-73
2021/12/21 13:51:46;;;;;;;14.93;6.50;;;;;;;;;;5009727;28;20049;-73
2021/12/21 13:54:16;;;;;;;18.65;9.23;;;;;;;;;;4996575;28;20034;-73
2021/12/21 13:56:42;;;;;;;10.02;6.22;;;;;;;;;;4990508;28;20046;-72
2021/12/21 13:59:12;;;;;;;17.40;8.82;;;;;;;;;;4990400;28;20050;-73
2021/12/21 14:01:38;;;;;;;16.25;8.05;;;;;;;;;;5006070;28;20053;-77
2021/12/21 14:04:09;;;;;;;16.17;7.43;;;;;;;;;;5012051;28;20102;-73
2021/12/21 14:06:37;;;;;;;16.83;9.52;;;;;;;;;;5009235;28;20057;-72
2021/12/21 14:09:04;;;;;;;13.10;7.40;;;;;;;;;;5003757;28;20112;-75
2021/12/21 14:11:33;;;;;;;15.80;7.60;;;;;;;;;;5002951;28;20022;-75
2021/12/21 14:14:00;;;;;;;17.60;6.95;;;;;;;;;;5008011;28;20022;-75
2021/12/21 14:16:28;;;;;;;11.55;7.72;;;;;;;;;;5009130;28;20115;-73
2021/12/21 14:18:56;;;;;;;11.00;7.32;;;;;;;;;;5000578;28;20148;-75
2021/12/21 14:21:26;;;;;;;15.65;7.10;;;;;;;;;;5006438;28;20026;-76
2021/12/21 14:23:55;;;;;;;13.90;6.70;;;;;;;;;;5011572;28;20062;-75
2021/12/21 14:26:25;;;;;;;11.63;6.22;;;;;;;;;;5014949;28;20025;-76
2021/12/21 14:28:56;;;;;;;12.25;6.15;;;;;;;;;;4999637;28;20050;-75
2021/12/21 14:31:24;;;;;;;13.15;6.72;;;;;;;;;;4989284;28;20023;-76
2021/12/21 14:33:56;;;;;;;14.32;6.47;;;;;;;;;;5012889;28;20014;-74
2021/12/21 14:36:23;;;;;;;10.13;5.90;;;;;;;;;;5026962;28;20018;-73
2021/12/21 14:38:51;;;;;;;12.90;6.32;;;;;;;;;;5020852;28;20053;-73
2021/12/21 14:41:25;;;;;;;13.38;6.47;;;;;;;;;;5008454;28;20445;-72
2021/12/21 14:44:20;;;;;;;17.60;8.10;;;;;;;;;;5008474;28;20053;-72
2021/12/21 14:46:53;;;;;;;15.77;7.78;;;;;;;;;;5002554;28;20069;-72
2021/12/21 14:49:27;;;;;;;17.05;7.00;;;;;;;;;;5025101;28;20040;-75
2021/12/21 14:52:00;;;;;;;13.40;7.38;;;;;;;;;;5006997;28;20027;-72
2021/12/21 14:54:30;;;;;;;22.17;7.85;;;;;;;;;;5021737;28;20018;-73
2021/12/21 14:57:07;;;;;;;20.50;9.18;;;;;;;;;;5018624;28;20018;-73
2021/12/21 14:59:37;;;;;;;15.05;7.85;;;;;;;;;;4986535;28;20030;-72
2021/12/21 15:02:10;;;;;;;27.77;8.27;;;;;;;;;;5017107;28;20030;-75
2021/12/21 15:04:43;;;;;;;15.98;7.70;;;;;;;;;;5006350;28;20474;-75
2021/12/21 15:07:09;;;;;;;16.13;7.75;;;;;;;;;;5003879;28;20034;-73
2021/12/21 15:09:35;;;;;;;11.73;6.78;;;;;;;;;;5005263;28;20022;-75
2021/12/21 15:12:01;;;;;;;17.45;7.35;;;;;;;;;;5002865;28;20037;-73
2021/12/21 15:14:28;;;;;;;15.20;6.15;;;;;;;;;;5015402;28;20033;-76
2021/12/21 15:16:54;;;;;;;19.00;7.65;;;;;;;;;;5021504;28;20022;-75
2021/12/21 15:19:23;;;;;;;16.67;8.77;;;;;;;;;;5008102;28;20464;-75
2021/12/21 15:21:49;;;;;;;17.15;8.80;;;;;;;;;;4981120;28;20026;-77
2021/12/21 15:24:15;;;;;;;13.45;7.63;;;;;;;;;;5002456;28;20069;-73
2021/12/21 15:26:41;;;;;;;17.83;7.90;;;;;;;;;;5000706;28;20038;-76
2021/12/21 15:29:07;;;;;;;13.30;6.57;;;;;;;;;;5005999;28;20026;-78
2021/12/21 15:31:33;;;;;;;20.23;7.72;;;;;;;;;;4996139;28;20026;-74
2021/12/21 15:34:00;;;;;;;14.77;7.55;;;;;;;;;;4984655;28;20031;-76
2021/12/21 15:36:26;;;;;;;18.55;8.65;;;;;;;;;;5013660;28;20082;-77
2021/12/21 15:38:54;;;;;;;14.70;7.82;;;;;;;;;;5003846;28;20022;-74
2021/12/21 15:41:20;;;;;;;15.93;6.97;;;;;;;;;;4999705;28;20477;-77
2021/12/21 15:43:47;;;;;;;23.58;9.45;;;;;;;;;;5001805;28;20022;-78
2021/12/21 15:46:13;;;;;;;27.35;12.70;;;;;;;;;;4996672;28;20052;-75
2021/12/21 15:48:44;;;;;;;22.15;10.63;;;;;;;;;;4991044;28;20023;-78
2021/12/21 15:51:11;;;;;;;37.67;18.85;;;;;;;;;;4992677;28;20117;-75
2021/12/21 15:53:42;;;;;;;28.42;12.93;;;;;;;;;;4992204;28;20086;-77